Time;durP1;ratioP1;P1;durP2;ratioP2;P2;SDS_P1;SDS_P2;PMS_P1;PMS_P2;Temp;Humidity;BMP_temperature;BMP_pressure;BME280_temperature;BME280_humidity;BME280_pressure;Samples;Min_cycle;Max_cycle;Signal;HPM_P1;HPM_P2
2021/03/04 00:01:17;;;;;;;89.65;47.55;;;9.00;99.90;;;9.26;75.24;102375.50;4916323;29;20517;-78
2021/03/04 00:03:46;;;;;;;94.90;49.13;;;9.00;99.90;;;9.06;75.01;102340.69;4916513;29;20431;-77
2021/03/04 00:06:13;;;;;;;92.68;48.67;;;9.00;99.90;;;8.96;75.88;102362.44;4916202;29;20048;-77
2021/03/04 00:08:41;;;;;;;96.15;49.30;;;8.70;99.90;;;9.01;75.85;102348.50;4916451;29;20442;-76
2021/03/04 00:11:08;;;;;;;91.32;48.65;;;8.80;99.90;;;9.13;75.49;102354.94;4916236;29;20477;-77
2021/03/04 00:13:35;;;;;;;88.80;46.78;;;8.90;99.90;;;9.21;75.83;102359.56;4916308;29;20041;-76
2021/03/04 00:16:03;;;;;;;99.80;50.40;;;9.00;99.90;;;9.24;75.53;102362.28;4916298;29;20079;-77
2021/03/04 00:18:31;;;;;;;99.43;49.25;;;9.00;99.90;;;8.93;75.44;102370.25;4916309;29;20569;-77
2021/03/04 00:21:04;;;;;;;98.00;49.92;;;8.80;99.90;;;8.86;76.68;102365.69;4916293;29;20044;-77
2021/03/04 00:23:31;;;;;;;100.28;51.30;;;8.70;99.90;;;8.74;76.36;102360.06;4899187;29;20455;-74
2021/03/04 00:25:58;;;;;;;105.70;51.30;;;8.60;99.90;;;8.81;77.20;102357.63;4916434;29;20048;-77
2021/03/04 00:28:26;;;;;;;105.03;51.60;;;8.60;99.90;;;8.57;77.71;102349.06;4916460;29;20123;-78
2021/03/04 00:30:53;;;;;;;104.78;52.15;;;8.40;99.90;;;8.78;77.75;102351.38;4899332;29;20076;-77
2021/03/04 00:33:21;;;;;;;104.97;51.67;;;8.50;99.90;;;8.87;77.83;102364.81;4916264;29;20043;-78
2021/03/04 00:35:48;;;;;;;108.30;52.38;;;8.60;99.90;;;8.86;77.51;102353.41;4916214;29;20040;-78
2021/03/04 00:38:17;;;;;;;107.53;52.00;;;8.60;99.90;;;9.11;76.63;102360.19;4916083;29;20040;-78
2021/03/04 00:40:44;;;;;;;105.18;53.60;;;8.80;99.90;;;9.02;77.15;102363.47;4899260;29;20108;-77
2021/03/04 00:43:13;;;;;;;107.88;51.58;;;8.80;99.90;;;8.87;77.69;102378.00;4916280;29;20076;-77
2021/03/04 00:45:40;;;;;;;106.22;51.45;;;8.60;99.90;;;8.81;77.03;102376.09;4916062;29;20052;-77
2021/03/04 00:48:10;;;;;;;105.35;51.72;;;8.60;99.90;;;8.56;78.13;102355.19;4916129;29;20048;-77
2021/03/04 00:50:39;;;;;;;103.13;50.50;;;8.40;99.90;;;8.83;77.95;102358.56;4915998;29;20044;-77
2021/03/04 00:53:06;;;;;;;95.30;48.65;;;8.60;99.90;;;8.90;77.63;102364.91;4917493;29;20384;-77
2021/03/04 00:55:35;;;;;;;100.22;50.08;;;8.70;99.90;;;8.92;77.68;102356.16;4919799;29;20059;-75
2021/03/04 00:58:03;;;;;;;100.25;50.28;;;8.70;99.90;;;9.01;77.19;102343.22;4919442;29;20108;-77
2021/03/04 01:00:34;;;;;;;99.05;49.60;;;8.80;99.90;;;8.85;76.83;102341.03;4919524;29;20074;-77
2021/03/04 01:03:01;;;;;;;98.75;49.70;;;8.70;99.90;;;8.72;77.48;102338.03;4919472;29;20449;-76
2021/03/04 01:05:29;;;;;;;97.82;49.20;;;8.50;99.90;;;8.56;77.45;102327.91;4919434;29;20060;-77
2021/03/04 01:07:56;;;;;;;97.85;49.40;;;8.40;99.90;;;8.75;77.67;102336.38;4919535;29;20462;-77
2021/03/04 01:10:31;;;;;;;91.10;48.83;;;8.50;99.90;;;8.82;77.98;102346.25;4919384;29;20064;-77
2021/03/04 01:13:00;;;;;;;92.15;49.97;;;8.50;99.90;;;8.77;77.28;102339.03;4919446;29;20372;-77
2021/03/04 01:15:31;;;;;;;93.07;47.28;;;8.60;99.90;;;8.86;76.85;102349.84;4919241;29;20067;-77
2021/03/04 01:17:59;;;;;;;90.38;48.15;;;8.60;99.90;;;9.01;76.63;102343.22;4919451;29;20119;-77
2021/03/04 01:20:27;;;;;;;94.90;48.55;;;8.80;99.90;;;8.95;76.21;102339.53;4919164;29;20131;-76
2021/03/04 01:22:54;;;;;;;90.05;46.67;;;8.70;99.90;;;8.94;76.75;102327.19;4919014;29;20044;-76
2021/03/04 01:25:22;;;;;;;93.18;47.60;;;8.70;99.90;;;8.70;76.38;102297.53;4919142;29;20134;-75
2021/03/04 01:27:52;;;;;;;91.45;46.85;;;8.70;99.90;;;8.91;76.59;102324.47;4918960;29;20138;-77
2021/03/04 01:30:24;;;;;;;99.90;48.50;;;8.70;99.90;;;8.85;76.25;102306.72;4918919;29;20052;-77
2021/03/04 01:32:52;;;;;;;89.32;46.35;;;8.70;99.90;;;8.85;76.04;102314.66;4919183;29;20091;-77
2021/03/04 01:35:20;;;;;;;99.47;49.75;;;8.70;99.90;;;8.69;76.50;102272.88;4918923;29;20458;-77
2021/03/04 01:37:47;;;;;;;91.68;47.75;;;8.70;99.90;;;8.85;76.18;102305.84;4918829;29;20040;-77
2021/03/04 01:40:18;;;;;;;96.00;47.90;;;8.70;99.90;;;8.71;76.75;102280.88;4918850;29;20075;-77
2021/03/04 01:42:45;;;;;;;;;;;8.70;99.90;;;8.89;76.53;102302.41;4919112;29;20070;-77
2021/03/04 01:45:13;;;;;;;96.93;48.88;;;8.70;99.90;;;8.90;76.78;102294.53;4918722;29;19923;-77
2021/03/04 01:47:48;;;;;;;98.75;48.35;;;8.70;99.90;;;8.90;76.63;102283.97;4918782;29;20451;-77
2021/03/04 01:50:18;;;;;;;89.80;45.65;;;8.70;99.90;;;8.92;75.84;102276.13;4918656;29;20486;-76
2021/03/04 01:52:46;;;;;;;95.63;49.50;;;8.70;99.90;;;8.82;75.99;102247.72;4918638;29;20056;-76
2021/03/04 01:55:16;;;;;;;93.72;48.55;;;8.80;99.90;;;8.82;76.00;102253.00;4918493;29;20124;-77
2021/03/04 01:57:45;;;;;;;94.70;49.50;;;8.80;99.90;;;8.98;76.01;102271.00;4918458;29;20473;-77
2021/03/04 02:00:17;;;;;;;100.13;50.17;;;8.80;99.90;;;9.01;75.76;102277.25;4918520;29;20070;-77
2021/03/04 02:02:45;;;;;;;104.47;50.83;;;8.80;99.90;;;9.03;75.74;102282.56;4901606;29;20056;-77
2021/03/04 02:05:16;;;;;;;100.63;50.72;;;8.80;99.90;;;8.97;76.09;102280.66;4918132;29;20138;-76
2021/03/04 02:07:50;;;;;;;;;;;8.80;99.90;;;8.94;76.34;102277.06;4918869;29;20060;-76
2021/03/04 02:10:23;;;;;;;101.20;51.00;;;8.80;99.90;;;8.95;76.02;102279.72;4918506;29;19923;-77
2021/03/04 02:12:57;;;;;;;108.30;52.55;;;8.70;99.90;;;8.97;76.20;102270.09;4918270;29;20055;-77
2021/03/04 02:15:31;;;;;;;111.05;52.85;;;8.70;99.90;;;9.05;76.33;102254.47;4918215;29;20044;-77
2021/03/04 02:18:03;;;;;;;108.00;52.97;;;8.80;99.90;;;9.00;76.31;102243.78;4918218;29;20056;-77
2021/03/04 02:20:36;;;;;;;102.85;49.83;;;8.80;99.90;;;8.99;76.17;102251.66;4918332;29;20110;-77
2021/03/04 02:23:22;;;;;;;101.22;51.33;;;8.80;99.90;;;9.00;76.32;102264.88;4918189;29;20111;-77
2021/03/04 02:25:59;;;;;;;102.82;51.58;;;8.70;99.90;;;8.97;75.86;102248.09;4918047;29;20051;-77
2021/03/04 02:28:32;;;;;;;97.20;49.83;;;8.80;99.90;;;9.00;75.72;102245.56;4917875;29;20116;-77
2021/03/04 02:31:04;;;;;;;98.00;48.03;;;8.80;99.90;;;9.01;76.02;102244.69;4900909;29;20139;-77
2021/03/04 02:33:32;;;;;;;100.70;50.85;;;8.80;99.90;;;8.86;75.98;102234.66;4901153;29;20190;-76
2021/03/04 02:36:01;;;;;;;100.28;49.63;;;8.80;99.90;;;9.04;76.09;102240.34;4917783;29;20126;-77
2021/03/04 02:38:29;;;;;;;97.75;51.63;;;8.80;99.90;;;9.00;75.70;102232.34;4917773;29;20158;-76
2021/03/04 02:40:59;;;;;;;90.90;48.15;;;8.80;99.90;;;8.92;76.09;102224.22;4917688;29;20052;-76
2021/03/04 02:43:29;;;;;;;88.68;48.33;;;8.70;99.90;;;9.01;75.71;102231.47;4917632;29;20059;-76
2021/03/04 02:45:59;;;;;;;81.00;44.80;;;8.70;99.90;;;8.93;76.23;102219.84;4917880;29;20051;-77
2021/03/04 02:48:27;;;;;;;81.82;42.88;;;8.70;99.90;;;8.92;75.92;102226.88;4917590;29;20051;-77
2021/03/04 02:50:57;;;;;;;81.00;44.15;;;8.70;99.90;;;8.93;75.74;102214.56;4917527;29;20044;-77
2021/03/04 02:53:25;;;;;;;85.50;45.42;;;8.70;99.90;;;9.00;75.52;102212.09;4917426;29;20474;-77
2021/03/04 02:55:53;;;;;;;87.53;45.88;;;8.80;99.90;;;8.93;76.09;102193.47;4917424;29;20462;-75
2021/03/04 02:58:21;;;;;;;84.72;47.03;;;8.70;99.90;;;9.00;75.63;102195.41;4917722;29;20044;-77
2021/03/04 03:00:50;;;;;;;87.05;45.95;;;8.70;99.90;;;8.87;75.87;102204.78;4900431;29;20494;-76
2021/03/04 03:03:18;;;;;;;76.97;43.28;;;8.70;99.90;;;8.84;75.81;102199.44;4917403;29;20051;-76
2021/03/04 03:05:47;;;;;;;84.40;44.63;;;8.70;99.90;;;8.78;75.81;102206.28;4917281;29;20454;-77
2021/03/04 03:08:17;;;;;;;75.90;43.05;;;8.60;99.90;;;8.73;76.44;102190.34;4917478;29;20060;-76
2021/03/04 03:10:45;;;;;;;75.10;39.78;;;8.60;99.90;;;8.66;75.93;102166.44;4917377;29;20052;-76
2021/03/04 03:13:14;;;;;;;70.53;39.38;;;8.60;99.90;;;8.80;75.58;102197.56;4917113;29;20123;-77
2021/03/04 03:15:42;;;;;;;68.50;38.63;;;8.60;99.90;;;8.63;75.40;102190.09;4916331;29;20126;-77
2021/03/04 03:18:12;;;;;;;67.47;38.70;;;8.50;99.90;;;8.85;75.33;102211.75;4900140;29;20099;-76
2021/03/04 03:20:40;;;;;;;65.80;37.17;;;8.60;99.90;;;8.68;75.40;102196.38;4917032;29;20134;-77
2021/03/04 03:23:08;;;;;;;69.30;38.38;;;8.50;99.90;;;8.66;75.53;102225.34;4916877;29;20037;-77
2021/03/04 03:25:35;;;;;;;66.63;38.78;;;8.50;99.90;;;8.57;76.34;102193.47;4917121;29;20048;-75
2021/03/04 03:28:04;;;;;;;68.47;40.08;;;8.40;99.90;;;8.58;75.91;102181.16;4916947;29;20067;-77
2021/03/04 03:30:32;;;;;;;70.65;38.95;;;8.40;99.90;;;8.53;76.26;102181.06;4916940;29;20455;-76
2021/03/04 03:33:04;;;;;;;69.82;39.55;;;8.40;99.90;;;8.58;75.94;102183.81;4916855;29;20040;-76
2021/03/04 03:35:34;;;;;;;70.25;40.97;;;8.40;99.90;;;8.52;75.89;102178.38;4916766;29;20040;-76
2021/03/04 03:38:04;;;;;;;72.50;42.08;;;8.40;99.90;;;8.56;75.86;102186.41;4916909;29;20040;-76
2021/03/04 03:40:33;;;;;;;67.32;40.42;;;8.40;99.90;;;8.60;76.03;102184.72;4916729;29;20644;-77
2021/03/04 03:43:05;;;;;;;71.57;40.93;;;8.40;99.90;;;7.80;76.04;102049.13;4916752;29;20048;-77
2021/03/04 03:45:36;;;;;;;67.82;40.10;;;8.40;99.90;;;8.62;75.81;102186.56;4916678;29;20108;-76
2021/03/04 03:48:09;;;;;;;70.30;41.60;;;8.50;99.90;;;8.57;75.67;102185.56;4916670;29;20051;-77
2021/03/04 03:50:38;;;;;;;70.57;42.20;;;8.40;99.90;;;8.59;75.86;102196.16;4916836;29;20044;-77
2021/03/04 03:53:06;;;;;;;68.22;41.15;;;8.40;99.90;;;8.59;75.43;102190.88;4916497;29;20046;-77
2021/03/04 03:55:34;;;;;;;72.95;40.95;;;8.40;99.90;;;8.62;75.62;102191.84;4916544;29;20067;-76
2021/03/04 03:58:02;;;;;;;67.10;40.25;;;8.40;99.90;;;8.69;75.51;102195.53;4916426;29;20051;-77
2021/03/04 04:00:31;;;;;;;68.05;40.58;;;8.50;99.90;;;8.72;74.72;102187.69;4916435;29;20502;-76
2021/03/04 04:03:03;;;;;;;70.93;42.20;;;8.50;99.90;;;8.75;74.82;102187.78;4916579;29;20036;-77
2021/03/04 04:05:31;;;;;;;67.82;42.65;;;8.60;99.90;;;8.72;74.42;102185.03;4916620;29;20055;-77
2021/03/04 04:08:00;;;;;;;69.65;42.58;;;8.50;99.90;;;8.71;74.29;102199.09;4916151;29;20499;-77
2021/03/04 04:10:30;;;;;;;67.68;41.08;;;8.50;99.90;;;8.76;75.19;102194.81;4916440;29;20048;-76
2021/03/04 04:12:58;;;;;;;69.32;44.00;;;8.50;99.90;;;8.42;74.43;102108.69;4916322;29;20044;-77
2021/03/04 04:15:26;;;;;;;67.07;40.78;;;8.50;99.90;;;8.78;74.25;102161.44;4916502;29;20052;-76
2021/03/04 04:17:57;;;;;;;72.68;43.40;;;8.50;99.90;;;8.79;74.32;102169.38;4916479;29;20112;-76
2021/03/04 04:20:45;;;;;;;67.72;41.33;;;8.60;99.90;;;8.83;74.40;102170.34;4899424;29;20051;-77
2021/03/04 04:23:14;;;;;;;69.20;41.72;;;8.50;99.90;;;8.62;74.36;102131.19;4916141;29;20111;-76
2021/03/04 04:25:48;;;;;;;72.43;43.67;;;8.60;99.90;;;8.85;74.36;102174.81;4916489;29;20044;-76
2021/03/04 04:28:16;;;;;;;73.15;44.15;;;8.60;99.90;;;8.87;74.22;102173.09;4919673;29;20048;-77
2021/03/04 04:30:43;;;;;;;67.18;42.25;;;8.60;99.90;;;8.85;74.53;102168.63;4920115;29;20454;-76
2021/03/04 04:33:12;;;;;;;72.88;45.72;;;8.60;99.90;;;8.79;74.30;102171.13;4919992;29;20392;-77
2021/03/04 04:35:39;;;;;;;76.05;45.50;;;8.60;99.90;;;8.75;73.68;102166.66;4920215;29;20569;-75
2021/03/04 04:38:07;;;;;;;82.90;45.13;;;8.60;99.90;;;8.75;74.28;102156.13;4903163;29;20462;-76
2021/03/04 04:40:35;;;;;;;80.18;47.53;;;8.50;99.90;;;8.78;74.40;102149.16;4920021;29;20111;-77
2021/03/04 04:43:03;;;;;;;79.47;45.95;;;8.60;99.90;;;8.63;74.48;102116.25;4919923;29;20076;-76
2021/03/04 04:45:30;;;;;;;80.90;46.00;;;8.60;99.90;;;8.73;75.00;102137.59;4919758;29;20103;-76
2021/03/04 04:47:57;;;;;;;79.60;47.53;;;8.60;99.90;;;8.75;74.42;102146.44;4919739;29;20071;-77
2021/03/04 04:50:25;;;;;;;81.57;47.33;;;8.60;99.90;;;8.71;74.56;102138.44;4919592;29;20173;-77
2021/03/04 04:52:52;;;;;;;77.13;46.47;;;8.50;99.90;;;8.58;74.95;102131.97;4902813;29;20090;-77
2021/03/04 04:55:20;;;;;;;79.70;46.95;;;8.50;99.90;;;8.80;74.66;102136.00;4919610;29;20107;-78
2021/03/04 04:57:51;;;;;;;77.05;46.58;;;8.60;99.90;;;8.83;74.54;102133.41;4919556;29;20044;-77
2021/03/04 05:00:20;;;;;;;79.68;45.67;;;8.60;99.90;;;8.77;74.62;102131.53;4919616;29;20040;-77
2021/03/04 05:02:48;;;;;;;79.57;48.10;;;8.60;99.90;;;8.77;74.93;102126.25;4919363;29;20048;-76
2021/03/04 05:05:16;;;;;;;70.28;42.45;;;8.50;99.90;;;8.79;74.72;102126.28;4919400;29;20046;-83
2021/03/04 05:07:43;;;;;;;74.40;43.42;;;8.60;99.90;;;8.82;74.87;102132.53;4902379;29;20125;-72
2021/03/04 05:10:12;;;;;;;70.72;41.58;;;8.60;99.90;;;8.78;74.20;102130.69;4902434;29;20430;-70
2021/03/04 05:12:39;;;;;;;71.15;43.22;;;8.60;99.90;;;8.68;74.58;102127.78;4919391;29;20041;-74
2021/03/04 05:15:11;;;;;;;71.15;42.65;;;8.50;99.90;;;8.80;74.62;102123.72;4919322;29;20051;-75
2021/03/04 05:17:39;;;;;;;67.45;41.25;;;8.60;99.90;;;8.79;74.42;102121.00;4919189;29;20048;-72
2021/03/04 05:20:10;;;;;;;68.35;42.38;;;8.60;99.90;;;8.68;74.16;102085.59;4919159;29;20044;-73
2021/03/04 05:22:38;;;;;;;68.40;42.65;;;8.60;99.90;;;8.79;74.21;102121.00;4919188;29;20052;-71
2021/03/04 05:25:07;;;;;;;71.60;42.05;;;8.60;99.90;;;8.71;74.22;102109.41;4902220;29;20115;-72
2021/03/04 05:27:34;;;;;;;64.78;41.25;;;8.50;99.90;;;8.81;74.06;102119.28;4919338;29;20154;-72
2021/03/04 05:30:02;;;;;;;66.10;41.53;;;8.60;99.90;;;8.70;74.04;102120.81;4918947;29;20048;-72
2021/03/04 05:32:31;;;;;;;67.22;41.35;;;8.50;99.90;;;8.70;74.29;102120.81;4919207;29;20051;-72
2021/03/04 05:34:58;;;;;;;70.93;42.75;;;8.50;99.90;;;8.70;74.27;102119.06;4918887;29;20075;-73
2021/03/04 05:37:26;;;;;;;71.03;44.20;;;8.50;99.90;;;8.76;73.97;102118.31;4901947;29;20052;-72
2021/03/04 05:39:53;;;;;;;72.90;44.63;;;8.60;99.90;;;8.75;74.24;102120.06;4918098;29;20040;-72
2021/03/04 05:42:21;;;;;;;75.97;45.63;;;8.50;99.90;;;8.65;74.09;102107.50;4918731;29;20052;-72
2021/03/04 05:44:50;;;;;;;70.40;43.45;;;8.60;99.90;;;8.72;74.76;102116.47;4918638;29;20481;-72
2021/03/04 05:47:19;;;;;;;71.70;43.33;;;8.50;99.90;;;8.76;74.41;102108.66;4918944;29;20115;-72
2021/03/04 05:49:57;;;;;;;78.82;45.42;;;8.60;99.90;;;8.75;74.48;102111.28;4918697;29;20528;-72
2021/03/04 05:52:26;;;;;;;75.10;43.55;;;8.50;99.90;;;8.73;74.21;102115.63;4918693;29;20079;-71
2021/03/04 05:54:56;;;;;;;71.50;45.10;;;8.60;99.90;;;8.75;73.84;102114.78;4918542;29;20048;-72
2021/03/04 05:57:24;;;;;;;79.63;46.40;;;8.50;99.90;;;8.79;73.87;102111.34;4918653;29;20048;-72
2021/03/04 05:59:53;;;;;;;76.28;46.53;;;8.60;99.90;;;8.67;73.99;102110.19;4918448;29;20036;-72
2021/03/04 06:02:22;;;;;;;76.97;46.67;;;8.50;99.90;;;8.76;73.97;102115.69;4918474;29;20483;-71
2021/03/04 06:04:51;;;;;;;76.13;45.97;;;8.50;99.90;;;8.75;74.07;102111.28;4918405;29;20056;-72
2021/03/04 06:07:19;;;;;;;77.10;47.25;;;8.50;99.90;;;8.76;73.87;102106.03;4918172;29;20052;-71
2021/03/04 06:09:46;;;;;;;80.20;48.30;;;8.50;99.90;;;8.72;73.25;102108.53;4918210;29;20048;-71
2021/03/04 06:12:14;;;;;;;75.38;46.08;;;8.50;99.90;;;8.78;73.57;102098.13;4901458;29;20477;-71
2021/03/04 06:14:41;;;;;;;74.40;44.92;;;8.50;99.90;;;8.75;73.39;102103.34;4918362;29;20067;-72
2021/03/04 06:17:13;;;;;;;76.22;44.55;;;8.50;99.90;;;8.83;73.21;102100.00;4918123;29;20052;-71
2021/03/04 06:19:41;;;;;;;77.05;45.28;;;8.60;99.90;;;8.84;72.73;102103.56;4918145;29;20488;-72
2021/03/04 06:22:27;;;;;;;75.10;45.97;;;8.60;99.90;;;8.85;72.76;102098.31;4917875;29;20048;-71
2021/03/04 06:24:56;;;;;;;77.82;47.67;;;8.60;99.90;;;8.84;72.96;102098.28;4918259;29;20055;-71
2021/03/04 06:27:32;;;;;;;80.32;48.10;;;8.70;99.90;;;8.71;72.93;102094.47;4901086;29;20075;-71
2021/03/04 06:30:03;;;;;;;76.47;47.13;;;8.60;99.90;;;8.73;73.06;102094.53;4918039;29;20040;-71
2021/03/04 06:32:31;;;;;;;78.55;46.38;;;8.50;99.90;;;8.57;72.41;102069.53;4917913;29;20087;-71
2021/03/04 06:35:09;;;;;;;81.38;46.72;;;8.50;99.90;;;8.78;72.89;102091.13;4901103;29;20059;-71
2021/03/04 06:37:39;;;;;;;81.85;47.72;;;8.50;99.90;;;8.72;72.80;102096.25;4917877;29;20044;-72
2021/03/04 06:40:18;;;;;;;82.90;49.15;;;8.60;99.90;;;8.76;72.88;102102.47;4917803;29;20092;-71
2021/03/04 06:42:46;;;;;;;83.95;47.55;;;8.60;99.90;;;8.77;72.87;102102.50;4917648;29;20565;-72
2021/03/04 06:45:29;;;;;;;91.18;50.38;;;8.60;99.90;;;8.78;72.71;102111.31;4917574;29;20095;-71
2021/03/04 06:48:12;;;;;;;91.32;50.60;;;8.60;99.90;;;8.76;72.98;102113.03;4917656;29;20044;-72
2021/03/04 06:50:41;;;;;;;90.03;51.10;;;8.60;99.90;;;8.68;72.84;102110.22;4917612;29;20052;-72
2021/03/04 06:53:17;;;;;;;89.70;49.28;;;8.60;99.90;;;8.70;73.18;102108.50;4917573;29;20086;-72
2021/03/04 06:55:53;;;;;;;94.25;51.30;;;8.50;99.90;;;8.67;73.11;102102.28;4917663;29;20490;-71
2021/03/04 06:58:30;;;;;;;101.90;52.30;;;8.50;99.90;;;8.68;73.02;102104.06;4917642;29;20466;-71
2021/03/04 07:01:09;;;;;;;98.57;52.88;;;8.50;99.90;;;8.78;73.06;102113.97;4917358;29;20063;-71
2021/03/04 07:03:42;;;;;;;106.38;56.80;;;8.60;99.90;;;8.72;73.17;102121.72;4917257;29;20044;-71
2021/03/04 07:06:29;;;;;;;100.50;52.78;;;8.50;99.90;;;8.73;72.74;102120.91;4917268;29;20138;-71
2021/03/04 07:08:57;;;;;;;98.70;53.25;;;8.60;99.90;;;8.75;73.02;102125.31;4917383;29;20037;-71
2021/03/04 07:11:26;;;;;;;105.72;54.35;;;8.60;99.90;;;8.76;73.14;102126.22;4917073;29;20048;-72
2021/03/04 07:13:54;;;;;;;101.50;52.70;;;8.60;99.90;;;8.61;73.10;102120.59;4917086;29;20044;-71
2021/03/04 07:16:24;;;;;;;103.65;54.67;;;8.50;99.90;;;8.68;73.22;102128.69;4917065;29;20127;-71
2021/03/04 07:18:54;;;;;;;;;;;8.50;99.90;;;8.81;72.97;102129.84;4917488;29;20122;-72
2021/03/04 07:21:25;;;;;;;101.80;52.10;;;8.60;99.90;;;8.81;73.00;102124.56;4917133;29;19926;-71
2021/03/04 07:23:53;;;;;;;99.35;51.78;;;8.60;99.90;;;8.75;72.46;102125.31;4899948;29;20406;-71
2021/03/04 07:26:21;;;;;;;99.95;53.17;;;8.60;99.90;;;8.67;73.29;102116.34;4916937;29;20104;-71
2021/03/04 07:28:51;;;;;;;107.47;55.17;;;8.50;99.90;;;8.70;73.31;102120.81;4916855;29;20056;-71
2021/03/04 07:31:19;;;;;;;107.15;55.70;;;8.50;99.90;;;8.74;73.40;102122.66;4916795;29;20404;-71
2021/03/04 07:33:49;;;;;;;106.85;55.08;;;8.60;99.90;;;8.68;73.21;102133.97;4916728;29;20122;-71
2021/03/04 07:36:21;;;;;;;113.35;55.92;;;8.50;99.90;;;8.76;73.49;102131.50;4899853;29;20063;-71
2021/03/04 07:38:57;;;;;;;110.55;54.80;;;8.60;99.90;;;8.65;73.66;102122.47;4899717;29;20044;-71
2021/03/04 07:41:37;;;;;;;104.30;54.38;;;8.50;99.90;;;8.69;73.16;102116.41;4916650;29;20063;-71
2021/03/04 07:44:06;;;;;;;108.10;55.35;;;8.50;99.90;;;8.73;73.42;102112.97;4916858;29;20074;-71
2021/03/04 07:46:37;;;;;;;102.85;53.45;;;8.60;99.90;;;8.68;73.55;102118.13;4916675;29;20111;-71
2021/03/04 07:49:07;;;;;;;110.35;56.65;;;8.50;99.90;;;8.68;73.61;102122.50;4916564;29;20063;-71
2021/03/04 07:51:43;;;;;;;109.43;57.40;;;8.50;99.90;;;8.70;73.64;102124.34;4916396;29;20396;-71
2021/03/04 07:54:13;;;;;;;109.40;55.13;;;8.50;99.90;;;8.71;73.46;102119.97;4916358;29;20048;-71
2021/03/04 07:56:42;;;;;;;117.45;56.42;;;8.50;99.90;;;8.70;73.55;102118.16;4916445;29;20470;-71
2021/03/04 07:59:12;;;;;;;126.18;58.83;;;8.50;99.90;;;8.57;73.27;102087.09;4916492;29;20095;-71
2021/03/04 08:01:42;;;;;;;109.97;53.28;;;8.50;99.90;;;8.72;73.33;102108.53;4915999;29;20048;-71
2021/03/04 08:04:21;;;;;;;116.72;57.17;;;8.50;99.90;;;8.71;73.32;102112.91;4916430;29;20418;-71
2021/03/04 08:06:49;;;;;;;118.35;54.88;;;8.50;99.90;;;8.72;73.54;102114.72;4916330;29;20060;-71
2021/03/04 08:09:31;;;;;;;113.85;54.90;;;8.50;99.90;;;8.77;73.69;102112.16;4916503;29;20092;-71
2021/03/04 08:12:10;;;;;;;113.35;55.47;;;8.50;99.90;;;8.92;72.94;102109.91;4916320;29;20417;-71
2021/03/04 08:14:40;;;;;;;108.32;54.80;;;8.70;99.90;;;8.90;72.86;102112.47;4916287;29;20446;-70
2021/03/04 08:17:09;;;;;;;103.45;52.60;;;8.70;99.90;;;8.85;72.82;102119.41;4916285;29;20095;-72
2021/03/04 08:19:36;;;;;;;104.85;51.47;;;8.70;99.90;;;8.89;73.20;102117.72;4916250;29;20044;-72
2021/03/04 08:22:07;;;;;;;110.60;54.78;;;8.70;99.90;;;8.91;72.85;102114.28;4916088;29;20541;-71
2021/03/04 08:24:36;;;;;;;;;;;8.80;99.90;;;8.81;72.65;102114.91;4916793;29;20487;-71
2021/03/04 08:27:06;;;;;;;109.15;53.03;;;8.80;99.90;;;8.79;73.16;102124.53;4916388;29;20333;-71
2021/03/04 08:29:47;;;;;;;110.47;55.22;;;8.60;99.90;;;8.82;73.26;102127.28;4916463;29;20129;-71
2021/03/04 08:32:16;;;;;;;104.30;52.90;;;8.70;99.90;;;8.80;73.10;102128.97;4899590;29;20139;-71
2021/03/04 08:34:44;;;;;;;105.60;53.35;;;8.60;99.90;;;8.77;73.33;102123.63;4916167;29;20036;-72
2021/03/04 08:37:23;;;;;;;111.75;55.88;;;8.60;99.90;;;8.81;73.38;102125.47;4899290;29;20108;-71
2021/03/04 08:39:59;;;;;;;114.30;56.47;;;8.60;99.90;;;8.73;73.33;102099.78;4899075;29;20115;-71
2021/03/04 08:42:27;;;;;;;118.85;56.60;;;8.60;99.90;;;8.17;73.42;102006.16;4899328;29;20052;-71
2021/03/04 08:44:56;;;;;;;120.65;58.00;;;8.60;99.90;;;8.75;73.69;102100.72;4916211;29;20052;-71
2021/03/04 08:47:24;;;;;;;112.05;57.78;;;8.60;99.90;;;8.80;73.57;102113.16;4916207;29;20036;-71
2021/03/04 08:49:54;;;;;;;106.85;52.83;;;8.60;99.90;;;8.78;74.00;102106.06;4899058;29;20048;-72
2021/03/04 08:52:24;;;;;;;108.38;54.53;;;8.60;99.90;;;8.59;73.54;102064.28;4898970;29;20056;-72
2021/03/04 08:54:53;;;;;;;111.28;55.45;;;8.70;99.90;;;8.73;74.33;102099.78;4915742;29;20116;-71
2021/03/04 08:57:23;;;;;;;111.35;55.50;;;8.60;99.90;;;8.70;74.62;102095.31;4915888;29;20044;-72
2021/03/04 09:00:07;;;;;;;112.63;55.83;;;8.60;99.90;;;8.69;74.11;102093.53;4915977;29;20048;-71
2021/03/04 09:02:34;;;;;;;116.63;55.88;;;8.60;99.90;;;8.75;74.29;102093.66;4899068;29;20040;-71
2021/03/04 09:05:03;;;;;;;119.18;57.28;;;8.60;99.90;;;8.86;73.96;102094.81;4915854;29;20401;-71
2021/03/04 09:07:32;;;;;;;125.05;58.22;;;8.70;99.90;;;8.90;74.18;102104.56;4915666;29;20518;-71
2021/03/04 09:10:06;;;;;;;122.03;57.35;;;8.70;99.90;;;8.93;74.32;102106.38;4915666;29;20055;-71
2021/03/04 09:12:41;;;;;;;115.85;55.40;;;8.80;99.90;;;8.79;74.20;102110.44;4915844;29;20048;-71
2021/03/04 09:15:14;;;;;;;124.00;57.75;;;8.70;99.90;;;8.72;74.78;102103.28;4918659;29;20096;-71
2021/03/04 09:17:43;;;;;;;110.85;53.92;;;8.60;99.90;;;8.71;74.58;102107.66;4919202;29;20403;-71
2021/03/04 09:20:13;;;;;;;120.93;57.83;;;8.50;99.90;;;8.82;74.64;102105.25;4919273;29;20056;-71
2021/03/04 09:22:42;;;;;;;115.13;53.95;;;8.70;99.90;;;8.83;74.38;102099.13;4918942;29;20055;-74
2021/03/04 09:25:11;;;;;;;117.80;56.13;;;8.60;99.90;;;8.81;74.79;102104.38;4919330;29;20502;-71
2021/03/04 09:27:39;;;;;;;107.10;52.25;;;8.60;99.90;;;8.73;74.68;102126.16;4919068;29;20401;-71
2021/03/04 09:30:08;;;;;;;108.05;52.72;;;8.50;99.90;;;7.98;74.77;101962.69;4918960;29;20048;-71
2021/03/04 09:32:38;;;;;;;112.13;53.13;;;8.60;99.90;;;8.69;74.89;102100.56;4919120;29;20080;-70
2021/03/04 09:35:14;;;;;;;112.57;54.10;;;8.60;99.90;;;8.78;74.90;102103.41;4901953;29;20056;-71
2021/03/04 09:37:42;;;;;;;108.93;52.47;;;8.50;99.90;;;8.73;75.54;102097.16;4918867;29;20056;-70
2021/03/04 09:40:22;;;;;;;111.72;51.15;;;8.60;99.90;;;8.79;75.27;102107.81;4901709;29;20054;-71
2021/03/04 09:42:50;;;;;;;107.55;52.35;;;8.60;99.90;;;8.84;75.35;102104.44;4918720;29;20407;-70
2021/03/04 09:45:18;;;;;;;110.53;51.50;;;8.60;99.90;;;8.88;75.86;102105.41;4918697;29;20116;-70
2021/03/04 09:47:48;;;;;;;106.10;49.10;;;8.70;99.90;;;8.73;75.68;102070.78;4918541;29;20052;-70
2021/03/04 09:50:20;;;;;;;89.78;46.25;;;8.70;99.90;;;8.96;75.33;102104.69;4918641;29;20052;-71
2021/03/04 09:53:01;;;;;;;95.80;48.05;;;8.70;99.90;;;8.96;75.29;102103.84;4918554;29;20108;-70
2021/03/04 09:55:38;;;;;;;100.07;47.22;;;8.70;99.90;;;9.01;75.27;102108.34;4901508;29;20067;-70
2021/03/04 09:58:15;;;;;;;101.00;47.30;;;8.80;99.90;;;9.06;75.06;102104.03;4918340;29;20422;-70
2021/03/04 10:00:44;;;;;;;89.72;42.20;;;8.80;99.90;;;9.09;74.72;102100.59;4918453;29;20048;-70
2021/03/04 10:03:35;;;;;;;80.40;40.63;;;8.80;99.90;;;8.96;74.48;102098.56;4918534;29;20048;-70
2021/03/04 10:06:05;;;;;;;86.07;41.50;;;8.80;99.90;;;8.97;74.71;102090.66;4918420;29;20055;-70
2021/03/04 10:08:42;;;;;;;74.63;38.55;;;8.80;99.90;;;9.04;74.94;102099.59;4918405;29;20088;-70
2021/03/04 10:11:22;;;;;;;74.72;36.28;;;8.80;99.90;;;8.89;74.28;102064.97;4918280;29;20067;-71
2021/03/04 10:13:50;;;;;;;67.75;34.92;;;8.90;99.90;;;9.07;74.65;102129.59;4901039;29;20056;-70
2021/03/04 10:16:17;;;;;;;67.72;35.28;;;8.90;99.90;;;9.21;74.03;102099.97;4918260;29;20443;-70
2021/03/04 10:18:49;;;;;;;63.72;33.00;;;9.00;99.90;;;9.06;74.38;102089.94;4918105;29;20061;-70
2021/03/04 10:21:17;;;;;;;65.00;33.13;;;9.00;99.90;;;8.70;73.99;102049.59;4918260;29;20048;-71
2021/03/04 10:23:49;;;;;;;66.28;33.33;;;8.90;99.90;;;9.01;74.47;102105.72;4917972;29;20041;-71